.
WxDataArchive / Data Records for 2016-03-05
2016-03-04 March 2016 2016-03-06

Data Records for Saturday, 05 March 2016

Time	Temp	Chill	HIndex	Humid	Dewpt	 Wind 	HiWind	WindDir	Rain 	Barom
-----	----	-----	------	-----	-----	------	------	-------	-----	-----
00:00	29.3	29.3	29.3	75	22.4	0	0	---	0.00	30.153 
00:05	29.3	29.3	29.3	75	22.4	0	0	---	0.00	30.153 
00:10	29.3	29.3	29.3	75	22.4	0	0	---	0.00	30.153 
00:15	29.3	29.3	29.3	76	22.7	0	1	112	0.00	30.143 
00:20	29.3	29.3	29.3	76	22.7	0	0	---	0.00	30.143 
00:25	29.3	29.3	29.3	77	23.0	0	1	112	0.00	30.143 
00:30	29.3	29.3	29.3	77	23.0	0	1	112	0.00	30.141 
00:35	29.4	29.4	29.4	77	23.1	0	1	112	0.00	30.141 
00:40	29.4	29.4	29.4	77	23.1	0	1	112	0.00	30.141 
00:45	29.4	29.4	29.4	77	23.1	0	1	112	0.00	30.140 
00:50	29.4	29.4	29.4	77	23.1	0	3	112	0.00	30.140 
00:55	29.4	29.4	29.4	77	23.1	0	1	112	0.00	30.140 
01:00	29.5	29.5	29.5	78	23.5	0	2	112	0.00	30.139 
01:05	29.5	29.5	29.5	77	23.2	0	1	112	0.00	30.139 
01:10	29.5	29.5	29.5	77	23.2	0	2	112	0.00	30.139 
01:15	29.5	29.5	29.5	77	23.2	0	1	112	0.00	30.135 
01:20	29.7	29.7	29.7	78	23.7	0	2	112	0.00	30.135 
01:25	29.7	29.7	29.7	78	23.7	0	1	112	0.00	30.135 
01:30	29.7	29.7	29.7	78	23.7	0	1	112	0.00	30.136 
01:35	29.7	29.7	29.7	78	23.7	0	1	112	0.00	30.136 
01:40	29.7	29.7	29.7	78	23.7	0	1	112	0.00	30.136 
01:45	29.7	29.7	29.7	79	24.0	0	0	---	0.00	30.136 
01:50	29.5	29.5	29.5	79	23.8	0	0	---	0.00	30.136 
01:55	29.5	29.5	29.5	79	23.8	0	0	---	0.00	30.136 
02:00	29.5	29.5	29.5	79	23.8	0	1	112	0.00	30.135 
02:05	29.7	29.7	29.7	79	24.0	0	0	---	0.00	30.135 
02:10	29.7	29.7	29.7	79	24.0	0	0	---	0.00	30.135 
02:15	29.7	29.7	29.7	79	24.0	0	0	---	0.00	30.129 
02:20	29.7	29.7	29.7	80	24.3	0	0	---	0.00	30.129 
02:25	29.7	29.7	29.7	80	24.3	0	1	112	0.00	30.129 
02:30	29.5	29.5	29.5	80	24.1	0	0	---	0.00	30.120 
02:35	29.5	29.5	29.5	80	24.1	0	1	112	0.00	30.120 
02:40	29.5	29.5	29.5	80	24.1	0	1	112	0.00	30.120 
02:45	29.7	29.7	29.7	80	24.3	0	1	112	0.00	30.112 
02:50	29.7	29.7	29.7	80	24.3	0	1	112	0.00	30.112 
02:55	29.7	29.7	29.7	80	24.3	0	1	112	0.00	30.112 
03:00	29.7	29.7	29.7	81	24.6	0	2	112	0.00	30.104 
03:05	29.8	29.8	29.8	81	24.7	0	1	112	0.00	30.104 
03:10	29.8	29.8	29.8	82	25.0	0	2	112	0.00	30.104 
03:15	29.7	29.7	29.7	83	25.2	0	1	112	0.00	30.094 
03:20	29.7	29.7	29.7	83	25.2	0	1	112	0.00	30.094 
03:25	29.5	29.5	29.5	84	25.3	0	2	112	0.00	30.094 
03:30	29.4	29.4	29.4	85	25.5	0	1	112	0.00	30.086 
03:35	29.4	29.4	29.4	85	25.5	0	1	112	0.00	30.086 
03:40	29.4	29.4	29.4	86	25.7	0	2	112	0.00	30.086 
03:45	29.3	29.3	29.3	86	25.6	0	1	112	0.00	30.085 
03:50	29.3	29.3	29.3	87	25.9	0	1	112	0.00	30.085 
03:55	29.3	29.3	29.3	87	25.9	0	1	112	0.00	30.085 
04:00	29.3	29.3	29.3	87	25.9	0	1	112	0.00	30.086 
04:05	29.3	29.3	29.3	87	25.9	0	1	112	0.00	30.086 
04:10	29.3	29.3	29.3	88	26.2	0	1	112	0.00	30.086 
04:15	29.3	29.3	29.3	88	26.2	0	1	112	0.00	30.088 
04:20	29.3	29.3	29.3	88	26.2	0	1	112	0.00	30.088 
04:25	29.3	29.3	29.3	88	26.2	0	1	112	0.00	30.088 
04:30	29.3	29.3	29.3	88	26.2	0	1	112	0.00	30.081 
04:35	29.3	29.3	29.3	88	26.2	0	0	---	0.00	30.081 
04:40	29.4	29.4	29.4	89	26.6	0	1	112	0.00	30.081 
04:45	29.4	29.4	29.4	89	26.6	0	1	112	0.00	30.077 
04:50	29.4	29.4	29.4	89	26.6	0	1	112	0.00	30.077 
04:55	29.4	29.4	29.4	89	26.6	0	1	112	0.00	30.077 
05:00	29.4	29.4	29.4	89	26.6	0	1	112	0.00	30.074 
05:05	29.4	29.4	29.4	89	26.6	0	2	112	0.00	30.074 
05:10	29.4	29.4	29.4	90	26.8	0	1	112	0.00	30.074 
05:15	29.4	29.4	29.4	90	26.8	0	2	112	0.00	30.074 
05:20	29.5	29.5	29.5	90	26.9	0	2	112	0.00	30.074 
05:25	29.5	29.5	29.5	90	26.9	0	2	112	0.00	30.074 
05:30	29.5	29.5	29.5	90	26.9	0	1	112	0.00	30.070 
05:35	29.5	29.5	29.5	91	27.2	0	2	112	0.00	30.070 
05:40	29.5	29.5	29.5	91	27.2	0	2	112	0.00	30.070 
05:45	29.5	29.5	29.5	91	27.2	0	2	112	0.00	30.068 
05:50	29.5	29.5	29.5	91	27.2	0	1	112	0.00	30.068 
05:55	29.5	29.5	29.5	91	27.2	0	1	112	0.00	30.068 
06:00	29.5	29.5	29.5	91	27.2	0	1	112	0.00	30.059 
06:05	29.7	29.7	29.7	91	27.4	1	2	112	0.00	30.059 
06:10	29.7	29.7	29.7	91	27.4	0	3	112	0.00	30.059 
06:15	29.7	29.7	29.7	91	27.4	1	3	112	0.00	30.049 
06:20	29.8	29.8	29.8	91	27.5	1	5	112	0.00	30.049 
06:25	29.8	29.8	29.8	91	27.5	0	2	112	0.00	30.049 
06:30	29.8	29.8	29.8	91	27.5	0	1	112	0.00	30.059 
06:35	29.8	29.8	29.8	91	27.5	0	2	112	0.00	30.059 
06:40	30.0	30.0	30.0	91	27.7	0	2	112	0.00	30.059 
06:45	30.0	30.0	30.0	91	27.7	0	2	112	0.00	30.059 
06:50	30.1	30.1	30.1	91	27.8	0	2	112	0.00	30.059 
06:55	30.1	30.1	30.1	91	27.8	0	1	112	0.00	30.059 
07:00	30.1	30.1	30.1	91	27.8	0	1	112	0.00	30.056 
07:05	30.1	30.1	30.1	91	27.8	0	1	112	0.00	30.056 
07:10	30.1	30.1	30.1	91	27.8	0	2	112	0.00	30.056 
07:15	30.3	30.3	30.3	91	28.0	0	1	112	0.00	30.062 
07:20	30.3	30.3	30.3	91	28.0	0	1	112	0.00	30.062 
07:25	30.3	30.3	30.3	91	28.0	0	1	112	0.00	30.062 
07:30	30.4	30.4	30.4	91	28.1	0	2	112	0.00	30.063 
07:35	30.4	30.4	30.4	91	28.1	0	2	112	0.00	30.063 
07:40	30.6	30.6	30.6	91	28.3	0	1	112	0.00	30.063 
07:45	30.6	30.6	30.6	91	28.3	0	1	112	0.00	30.056 
07:50	30.6	30.6	30.6	91	28.3	0	1	112	0.00	30.056 
07:55	30.7	30.7	30.7	91	28.4	0	2	112	0.00	30.056 
08:00	30.7	30.7	30.7	91	28.4	0	2	112	0.00	30.042 
08:05	30.9	30.9	30.9	91	28.6	1	3	112	0.00	30.042 
08:10	31.0	31.0	31.0	91	28.7	0	2	112	0.00	30.042 
08:15	31.0	31.0	31.0	91	28.7	0	2	112	0.00	30.051 
08:20	31.2	31.2	31.2	91	28.9	0	1	112	0.00	30.051 
08:25	31.2	31.2	31.2	91	28.9	0	1	112	0.00	30.051 
08:30	31.3	31.3	31.3	91	29.0	0	2	112	0.00	30.049 
08:35	31.3	31.3	31.3	91	29.0	0	2	112	0.00	30.049 
08:40	31.5	31.5	31.5	91	29.2	0	2	112	0.00	30.049 
08:45	31.6	31.6	31.6	91	29.3	0	1	112	0.00	30.055 
08:50	31.6	31.6	31.6	90	29.0	0	1	112	0.00	30.055 
08:55	31.8	31.8	31.8	90	29.2	0	1	112	0.00	30.055 
09:00	31.8	31.8	31.8	90	29.2	0	1	112	0.00	30.055 
09:05	31.9	31.9	31.9	90	29.3	0	2	112	0.00	30.055 
09:10	31.9	31.9	31.9	90	29.3	0	1	112	0.00	30.055 
09:15	32.1	32.1	32.1	90	29.5	0	1	112	0.00	30.050 
09:20	32.2	32.2	32.2	90	29.6	0	1	112	0.00	30.050 
09:25	32.2	32.2	32.2	90	29.6	0	2	112	0.00	30.050 
09:30	32.4	32.4	32.4	90	29.8	0	1	112	0.00	30.046 
09:35	32.5	32.5	32.5	90	29.9	0	1	112	0.00	30.046 
09:40	32.5	32.5	32.5	90	29.9	0	1	112	0.00	30.046 
09:45	32.7	32.7	32.7	90	30.1	0	1	112	0.00	30.044 
09:50	32.7	32.7	32.7	90	30.1	0	1	112	0.00	30.044 
09:55	32.7	32.7	32.7	90	30.1	0	0	---	0.00	30.044 
10:00	32.8	32.8	32.8	90	30.2	0	2	112	0.00	30.042 
10:05	32.8	32.8	32.8	90	30.2	0	1	112	0.00	30.042 
10:10	32.9	32.9	32.9	90	30.3	0	1	112	0.00	30.042 
10:15	32.9	32.9	32.9	90	30.3	0	3	112	0.00	30.040 
10:20	32.9	32.9	32.9	91	30.6	0	2	112	0.00	30.040 
10:25	32.9	32.9	32.9	91	30.6	0	2	112	0.00	30.040 
10:30	33.1	33.1	33.1	91	30.8	0	2	112	0.00	30.038 
10:35	33.1	33.1	33.1	91	30.8	0	3	112	0.00	30.038 
10:40	33.1	33.1	33.1	92	31.0	0	2	112	0.00	30.038 
10:45	33.1	33.1	33.1	92	31.0	0	1	112	0.00	30.037 
10:50	33.1	33.1	33.1	92	31.0	0	2	112	0.00	30.037 
10:55	33.2	33.2	33.2	92	31.1	0	3	112	0.00	30.037 
11:00	33.2	33.2	33.2	92	31.1	0	0	---	0.00	30.039 
11:05	33.4	33.4	33.4	92	31.3	0	1	112	0.00	30.039 
11:10	33.5	33.5	33.5	92	31.4	0	1	112	0.01	30.039 
11:15	33.5	33.5	33.5	92	31.4	0	1	112	0.00	30.041 
11:20	33.5	33.5	33.5	92	31.4	0	0	---	0.00	30.041 
11:25	33.5	33.5	33.5	92	31.4	0	1	112	0.00	30.041 
11:30	33.7	33.7	33.7	92	31.6	0	0	---	0.01	30.042 
11:35	33.7	33.7	33.7	92	31.6	0	1	112	0.00	30.042 
11:40	33.7	33.7	33.7	92	31.6	0	1	112	0.00	30.042 
11:45	33.7	33.7	33.7	92	31.6	0	1	112	0.00	30.045 
11:50	33.7	33.7	33.7	92	31.6	0	0	---	0.00	30.045 
11:55	33.8	33.8	33.8	93	32.0	0	1	112	0.00	30.045 
12:00	33.8	33.8	33.8	93	32.0	0	2	112	0.00	30.051 
12:05	33.8	33.8	33.8	93	32.0	0	1	112	0.00	30.051 
12:10	33.8	33.8	33.8	93	32.0	0	1	112	0.01	30.051 
12:15	34.0	34.0	34.0	93	32.2	0	0	---	0.00	30.047 
12:20	34.1	34.1	34.1	93	32.3	0	1	112	0.00	30.047 
12:25	34.1	34.1	34.1	93	32.3	0	2	112	0.00	30.047 
12:30	34.3	34.3	34.3	93	32.5	0	1	112	0.00	30.043 
12:35	34.3	34.3	34.3	93	32.5	0	1	112	0.00	30.043 
12:40	34.3	34.3	34.3	93	32.5	0	2	112	0.00	30.043 
12:45	34.4	34.4	34.4	93	32.6	0	1	112	0.00	30.042 
12:50	34.4	34.4	34.4	93	32.6	0	1	112	0.00	30.042 
12:55	34.6	34.6	34.6	93	32.8	0	2	112	0.00	30.042 
13:00	34.6	34.6	34.6	93	32.8	0	2	112	0.00	30.044 
13:05	34.6	34.6	34.6	93	32.8	0	1	112	0.00	30.044 
13:10	34.6	34.6	34.6	93	32.8	0	2	112	0.00	30.044 
13:15	34.7	34.7	34.7	93	32.9	0	1	112	0.00	30.046 
13:20	34.7	34.7	34.7	93	32.9	1	3	112	0.00	30.046 
13:25	34.7	34.7	34.7	93	32.9	0	3	112	0.00	30.046 
13:30	34.9	34.9	34.9	93	33.1	0	2	112	0.00	30.040 
13:35	35.0	35.0	35.0	94	33.5	0	1	112	0.00	30.040 
13:40	35.0	35.0	35.0	94	33.5	0	3	112	0.00	30.040 
13:45	35.0	35.0	35.0	93	33.2	0	2	112	0.00	30.040 
13:50	35.0	35.0	35.0	93	33.2	0	3	112	0.00	30.040 
13:55	35.0	35.0	35.0	94	33.5	0	1	112	0.00	30.040 
14:00	35.0	35.0	35.0	94	33.5	0	2	112	0.00	30.040 
14:05	35.2	35.2	35.2	94	33.6	0	2	112	0.00	30.040 
14:10	35.2	35.2	35.2	94	33.6	0	2	112	0.00	30.040 
14:15	35.3	35.3	35.3	94	33.7	0	2	112	0.00	30.040 
14:20	35.3	35.3	35.3	93	33.5	1	3	112	0.00	30.040 
14:25	35.3	35.3	35.3	93	33.5	0	3	112	0.00	30.040 
14:30	35.3	35.3	35.3	93	33.5	1	3	112	0.00	30.046 
14:35	35.2	35.2	35.2	93	33.4	1	3	112	0.00	30.046 
14:40	35.3	35.3	35.3	93	33.5	0	3	22	0.00	30.046 
14:45	35.3	35.3	35.3	93	33.5	0	2	22	0.00	30.051 
14:50	35.5	35.5	35.5	93	33.7	0	2	22	0.00	30.051 
14:55	35.3	35.3	35.3	93	33.5	1	4	338	0.00	30.051 
15:00	35.3	35.3	35.3	93	33.5	1	4	338	0.00	30.054 
15:05	35.3	35.3	35.3	93	33.5	1	4	338	0.00	30.054 
15:10	35.3	35.3	35.3	92	33.2	0	3	338	0.00	30.054 
15:15	35.3	35.3	35.3	92	33.2	0	2	338	0.00	30.055 
15:20	35.3	35.3	35.3	92	33.2	0	3	338	0.00	30.055 
15:25	35.3	35.3	35.3	92	33.2	1	3	338	0.00	30.055 
15:30	35.5	35.5	35.5	92	33.4	0	2	338	0.00	30.056 
15:35	35.5	35.5	35.5	92	33.4	1	3	338	0.00	30.056 
15:40	35.5	35.5	35.5	92	33.4	0	2	338	0.00	30.056 
15:45	35.5	35.5	35.5	92	33.4	0	2	338	0.00	30.065 
15:50	35.5	35.5	35.5	92	33.4	1	2	338	0.00	30.065 
15:55	35.5	35.5	35.5	91	33.1	1	3	338	0.00	30.065 
16:00	35.3	35.3	35.3	91	32.9	1	3	338	0.00	30.066 
16:05	35.5	35.5	35.5	91	33.1	0	2	338	0.00	30.066 
16:10	35.5	35.5	35.5	91	33.1	1	3	338	0.00	30.066 
16:15	35.5	35.5	35.5	91	33.1	1	4	338	0.00	30.070 
16:20	35.5	35.5	35.5	91	33.1	0	2	338	0.00	30.070 
16:25	35.5	35.5	35.5	91	33.1	0	2	338	0.00	30.070 
16:30	35.5	35.5	35.5	90	32.9	1	3	338	0.00	30.073 
16:35	35.5	35.5	35.5	90	32.9	1	2	338	0.00	30.073 
16:40	35.5	35.5	35.5	90	32.9	1	3	338	0.00	30.073 
16:45	35.5	35.5	35.5	90	32.9	1	3	338	0.00	30.081 
16:50	35.5	35.5	35.5	90	32.9	1	4	338	0.00	30.081 
16:55	35.3	35.3	35.3	89	32.4	1	4	338	0.00	30.081 
17:00	35.3	35.3	35.3	89	32.4	1	4	315	0.00	30.085 
17:05	35.3	35.3	35.3	89	32.4	1	3	292	0.00	30.085 
17:10	35.2	35.2	35.2	89	32.3	1	4	292	0.00	30.085 
17:15	35.2	35.2	35.2	89	32.3	1	2	292	0.00	30.088 
17:20	35.2	35.2	35.2	89	32.3	1	4	292	0.00	30.088 
17:25	35.0	35.0	35.0	89	32.1	1	4	270	0.00	30.088 
17:30	35.0	35.0	35.0	89	32.1	1	3	270	0.00	30.102 
17:35	35.0	35.0	35.0	89	32.1	1	3	270	0.00	30.102 
17:40	35.0	35.0	35.0	89	32.1	1	4	270	0.00	30.102 
17:45	35.0	35.0	35.0	89	32.1	1	5	315	0.00	30.114 
17:50	35.0	35.0	35.0	89	32.1	1	2	315	0.00	30.114 
17:55	34.9	34.9	34.9	89	32.0	0	1	315	0.00	30.114 
18:00	34.9	34.9	34.9	89	32.0	1	3	315	0.00	30.120 
18:05	34.9	34.9	34.9	89	32.0	0	2	315	0.00	30.120 
18:10	34.9	34.9	34.9	89	32.0	0	2	315	0.00	30.120 
18:15	34.9	34.9	34.9	89	32.0	0	3	315	0.00	30.132 
18:20	34.7	34.7	34.7	89	31.8	1	2	315	0.00	30.132 
18:25	34.7	34.7	34.7	89	31.8	1	2	315	0.00	30.132 
18:30	34.7	34.7	34.7	89	31.8	0	2	315	0.00	30.134 
18:35	34.7	34.7	34.7	89	31.8	0	3	315	0.00	30.134 
18:40	34.7	34.7	34.7	89	31.8	1	2	315	0.00	30.134 
18:45	34.7	34.7	34.7	89	31.8	0	2	315	0.00	30.139 
18:50	34.7	34.7	34.7	89	31.8	0	2	315	0.00	30.139 
18:55	34.7	34.7	34.7	89	31.8	0	2	315	0.00	30.139 
19:00	34.7	34.7	34.7	89	31.8	0	2	315	0.00	30.151 
19:05	34.7	34.7	34.7	89	31.8	0	3	315	0.00	30.151 
19:10	34.7	34.7	34.7	89	31.8	0	2	315	0.00	30.151 
19:15	34.7	34.7	34.7	88	31.5	0	2	315	0.00	30.160 
19:20	34.7	34.7	34.7	88	31.5	0	1	315	0.00	30.160 
19:25	34.6	34.6	34.6	88	31.4	0	1	315	0.00	30.160 
19:30	34.6	34.6	34.6	88	31.4	0	3	315	0.00	30.167 
19:35	34.6	34.6	34.6	88	31.4	0	2	315	0.00	30.167 
19:40	34.6	34.6	34.6	88	31.4	0	3	315	0.00	30.167 
19:45	34.6	34.6	34.6	88	31.4	0	3	315	0.00	30.180 
19:50	34.6	34.6	34.6	88	31.4	0	3	315	0.00	30.180 
19:55	34.4	34.4	34.4	88	31.2	0	2	315	0.00	30.180 
20:00	34.4	34.4	34.4	88	31.2	0	1	315	0.00	30.191 
20:05	34.4	34.4	34.4	88	31.2	0	1	315	0.00	30.191 
20:10	34.4	34.4	34.4	88	31.2	0	1	315	0.00	30.191 
20:15	34.4	34.4	34.4	88	31.2	0	1	315	0.00	30.194 
20:20	34.3	34.3	34.3	88	31.1	0	2	315	0.00	30.194 
20:25	34.3	34.3	34.3	88	31.1	0	2	315	0.00	30.194 
20:30	34.3	34.3	34.3	87	30.8	0	1	315	0.00	30.194 
20:35	34.3	34.3	34.3	87	30.8	0	2	315	0.00	30.194 
20:40	34.3	34.3	34.3	87	30.8	0	2	315	0.00	30.194 
20:45	34.3	34.3	34.3	87	30.8	0	1	315	0.00	30.196 
20:50	34.3	34.3	34.3	87	30.8	0	1	315	0.00	30.196 
20:55	34.3	34.3	34.3	87	30.8	0	1	315	0.00	30.196 
21:00	34.1	34.1	34.1	87	30.6	0	1	315	0.00	30.197 
21:05	34.1	34.1	34.1	87	30.6	0	1	315	0.00	30.197 
21:10	34.1	34.1	34.1	87	30.6	0	0	---	0.00	30.197 
21:15	34.1	34.1	34.1	87	30.6	0	1	315	0.00	30.199 
21:20	34.1	34.1	34.1	87	30.6	0	1	315	0.00	30.199 
21:25	34.1	34.1	34.1	87	30.6	0	0	---	0.00	30.199 
21:30	34.0	34.0	34.0	87	30.5	0	1	315	0.00	30.210 
21:35	34.0	34.0	34.0	87	30.5	0	0	---	0.00	30.210 
21:40	34.0	34.0	34.0	87	30.5	0	0	---	0.00	30.210 
21:45	33.8	33.8	33.8	87	30.3	0	0	---	0.00	30.216 
21:50	33.8	33.8	33.8	87	30.3	0	0	---	0.00	30.216 
21:55	33.8	33.8	33.8	87	30.3	0	1	315	0.00	30.216 
22:00	33.8	33.8	33.8	87	30.3	0	1	315	0.00	30.217 
22:05	33.8	33.8	33.8	87	30.3	0	1	315	0.00	30.217 
22:10	33.8	33.8	33.8	87	30.3	0	1	315	0.00	30.217 
22:15	33.8	33.8	33.8	88	30.6	0	2	315	0.00	30.228 
22:20	33.8	33.8	33.8	88	30.6	0	2	315	0.00	30.228 
22:25	33.8	33.8	33.8	88	30.6	0	1	315	0.00	30.228 
22:30	33.8	33.8	33.8	88	30.6	0	2	315	0.00	30.228 
22:35	33.8	33.8	33.8	88	30.6	0	2	315	0.00	30.228 
22:40	33.8	33.8	33.8	88	30.6	0	2	315	0.00	30.228 
22:45	33.8	33.8	33.8	88	30.6	0	1	315	0.00	30.240 
22:50	33.8	33.8	33.8	87	30.3	0	2	315	0.00	30.240 
22:55	33.8	33.8	33.8	87	30.3	0	2	315	0.00	30.240 
23:00	33.8	33.8	33.8	87	30.3	0	2	315	0.00	30.243 
23:05	33.8	33.8	33.8	86	30.1	0	2	315	0.00	30.243 
23:10	33.8	33.8	33.8	86	30.1	0	1	315	0.00	30.243 
23:15	33.7	33.7	33.7	86	30.0	0	2	315	0.00	30.243 
23:20	33.7	33.7	33.7	85	29.7	0	1	315	0.00	30.243 
23:25	33.8	33.8	33.8	85	29.8	0	0	---	0.00	30.243 
23:30	33.8	33.8	33.8	84	29.5	0	1	315	0.00	30.249 
23:35	33.7	33.7	33.7	84	29.4	0	1	315	0.00	30.249 
23:40	33.7	33.7	33.7	84	29.4	0	1	315	0.00	30.249 
23:45	33.7	33.7	33.7	84	29.4	0	0	---	0.00	30.254 
23:50	33.7	33.7	33.7	83	29.1	0	2	315	0.00	30.254 
23:55	33.7	33.7	33.7	83	29.1	0	1	315	0.00	30.254 

CoCoRaHS
IN-AL-39
A2 Web Hosting
Creative Commons License
GoDaddy
search engine by freefind advanced

loaded 2018-11-17 14:56:49 • last modified 2010-11-18 10:43:29
Privacy PolicyDisclaimer
• wx.awcolley.com is powered by PmWiki v.2002016 •
• all content (unless otherwise noted) © 2018 A W Colley